Lyle, Minnesota
Current Conditions -  °F | °C
As of 11:16 AM on Saturday 20 Dec 2014 (Local Time) from KAUM Reporting Station
Haze Haze  
Wind Chill: 20°   Ceiling: 200
Heat Index: 28°   Visibility: 1mi
Dew Point: 28°   Wind: 9mph
Humidity: 100%   Direction: 180°S
Pressure: 30.15"   Gusts: NA
Location:  43.51°N, 92.94°W
Report Text: KAUM 201716Z AUTO 18008KT 1SM BR OVC002 M02/M02 A3015 RMK AO2
Loading
Personal Weather Stations






























Interactive Weather Map New forecast layout! Learn more

10-Day Weather Forecast

Advertisements
Track Severe Weather on mobile